createdAt,value
2019-01-16T00:00:02.841Z,0.00
2019-01-16T00:01:02.855Z,0.00
2019-01-16T00:02:02.881Z,0.00
2019-01-16T00:03:02.885Z,0.00
2019-01-16T00:04:02.900Z,0.00
2019-01-16T00:05:02.915Z,0.00
2019-01-16T00:06:02.926Z,0.00
2019-01-16T00:07:02.943Z,0.00
2019-01-16T00:08:02.954Z,0.00
2019-01-16T00:09:02.971Z,0.00
2019-01-16T00:10:02.984Z,0.00
2019-01-16T00:11:03.000Z,0.00
2019-01-16T00:12:03.014Z,0.00
2019-01-16T00:13:03.025Z,0.00
2019-01-16T00:14:03.042Z,0.00
2019-01-16T00:15:03.057Z,0.00
2019-01-16T00:16:03.071Z,0.00
2019-01-16T00:17:03.084Z,0.00
2019-01-16T00:18:03.097Z,0.00
2019-01-16T00:19:03.115Z,0.00
2019-01-16T00:20:03.130Z,0.00
2019-01-16T00:21:03.145Z,0.00
2019-01-16T00:22:03.157Z,0.00
2019-01-16T00:23:03.171Z,0.00
2019-01-16T00:24:03.184Z,0.00
2019-01-16T00:25:03.201Z,0.00
2019-01-16T00:26:03.214Z,0.00
2019-01-16T00:27:03.229Z,0.00
2019-01-16T00:28:03.243Z,0.00
2019-01-16T00:29:03.256Z,0.00
2019-01-16T00:30:03.270Z,0.00
2019-01-16T00:31:03.286Z,0.00
2019-01-16T00:32:03.299Z,0.00
2019-01-16T00:33:03.314Z,0.00
2019-01-16T00:34:03.329Z,0.00
2019-01-16T00:35:03.345Z,0.00
2019-01-16T00:36:03.359Z,0.00
2019-01-16T00:37:03.374Z,0.00
2019-01-16T00:38:03.386Z,0.00
2019-01-16T00:39:03.404Z,0.00
2019-01-16T00:40:03.412Z,0.00
2019-01-16T00:41:03.430Z,0.00
2019-01-16T00:42:03.446Z,0.00
2019-01-16T00:43:03.459Z,0.00
2019-01-16T00:44:03.476Z,0.00
2019-01-16T00:45:03.491Z,0.00
2019-01-16T00:46:03.503Z,0.00
2019-01-16T00:47:03.520Z,0.00
2019-01-16T00:48:03.530Z,0.00
2019-01-16T00:49:03.547Z,0.00
2019-01-16T00:50:03.564Z,0.00
2019-01-16T00:51:03.575Z,0.00
2019-01-16T00:52:03.592Z,0.00
2019-01-16T00:53:03.605Z,0.00
2019-01-16T00:54:03.620Z,0.00
2019-01-16T00:55:03.634Z,0.00
2019-01-16T00:56:03.648Z,0.00
2019-01-16T00:57:03.665Z,0.00
2019-01-16T00:58:03.679Z,0.00
2019-01-16T00:59:03.741Z,0.00
2019-01-16T01:00:03.706Z,0.00
2019-01-16T01:01:03.726Z,0.00
2019-01-16T01:02:03.735Z,0.00
2019-01-16T01:03:03.752Z,0.00
2019-01-16T01:04:03.792Z,0.00
2019-01-16T01:05:03.844Z,0.00
2019-01-16T01:06:03.858Z,0.00
2019-01-16T01:07:03.843Z,0.00
2019-01-16T01:08:03.847Z,0.00
2019-01-16T01:09:03.910Z,0.00
2019-01-16T01:10:03.899Z,0.00
2019-01-16T01:11:03.907Z,0.00
2019-01-16T01:12:03.907Z,0.00
2019-01-16T01:13:03.911Z,0.00
2019-01-16T01:14:03.915Z,0.00
2019-01-16T01:15:03.926Z,0.00
2019-01-16T01:16:03.940Z,0.00
2019-01-16T01:17:03.955Z,0.00
2019-01-16T01:18:03.970Z,0.00
2019-01-16T01:19:03.984Z,0.00
2019-01-16T01:20:03.997Z,0.00
2019-01-16T01:21:04.012Z,0.00
2019-01-16T01:22:04.025Z,0.00
2019-01-16T01:23:04.040Z,0.00
2019-01-16T01:24:04.057Z,0.00
2019-01-16T01:25:04.070Z,0.00
2019-01-16T01:26:04.085Z,0.00
2019-01-16T01:27:04.102Z,0.00
2019-01-16T01:28:04.115Z,0.00
2019-01-16T01:29:04.132Z,0.00
2019-01-16T01:30:04.146Z,0.00
2019-01-16T01:31:04.159Z,0.00
2019-01-16T01:32:04.176Z,0.00
2019-01-16T01:33:04.194Z,0.00
2019-01-16T01:34:04.203Z,0.00
2019-01-16T01:35:04.220Z,0.00
2019-01-16T01:36:04.231Z,0.00
2019-01-16T01:37:04.248Z,0.00
2019-01-16T01:38:04.260Z,0.00
2019-01-16T01:39:04.277Z,0.00
2019-01-16T01:40:04.291Z,0.00
2019-01-16T01:41:04.306Z,0.00
2019-01-16T01:42:04.323Z,0.00
2019-01-16T01:43:04.334Z,0.00
2019-01-16T01:44:04.352Z,0.00
2019-01-16T01:45:04.365Z,0.00
2019-01-16T01:46:04.382Z,0.00
2019-01-16T01:47:04.398Z,0.00
2019-01-16T01:48:04.410Z,0.00
2019-01-16T01:49:04.426Z,0.00
2019-01-16T01:50:04.438Z,0.00
2019-01-16T01:51:04.454Z,0.00
2019-01-16T01:52:04.467Z,0.00
2019-01-16T01:53:04.484Z,0.00
2019-01-16T01:54:04.499Z,0.00
2019-01-16T01:55:04.512Z,0.00
2019-01-16T01:56:04.526Z,0.00
2019-01-16T01:57:04.542Z,0.00
2019-01-16T01:58:04.555Z,0.00
2019-01-16T01:59:04.570Z,0.00
2019-01-16T02:00:04.586Z,0.00
2019-01-16T02:01:04.600Z,0.00
2019-01-16T02:02:04.616Z,0.00
2019-01-16T02:03:04.631Z,0.00
2019-01-16T02:04:04.643Z,0.00
2019-01-16T02:05:04.662Z,0.00
2019-01-16T02:06:04.674Z,0.00
2019-01-16T02:07:04.688Z,0.00
2019-01-16T02:08:04.706Z,0.00
2019-01-16T02:09:04.720Z,0.00
2019-01-16T02:10:04.736Z,0.00
2019-01-16T02:11:04.750Z,0.00
2019-01-16T02:12:04.764Z,0.00
2019-01-16T02:13:04.777Z,0.00
2019-01-16T02:14:04.794Z,0.00
2019-01-16T02:15:04.806Z,0.00
2019-01-16T02:16:04.824Z,0.00
2019-01-16T02:17:04.836Z,0.00
2019-01-16T02:18:04.854Z,0.00
2019-01-16T02:19:04.868Z,0.00
2019-01-16T02:20:04.881Z,0.00
2019-01-16T02:21:04.897Z,0.00
2019-01-16T02:22:04.911Z,0.00
2019-01-16T02:23:04.925Z,0.00
2019-01-16T02:24:04.941Z,0.00
2019-01-16T02:25:04.956Z,0.00
2019-01-16T02:26:04.970Z,0.00
2019-01-16T02:27:04.984Z,0.00
2019-01-16T02:28:05.002Z,0.00
2019-01-16T02:29:05.014Z,0.00
2019-01-16T02:30:05.029Z,0.00
2019-01-16T02:31:05.044Z,0.00
2019-01-16T02:32:05.060Z,0.00
2019-01-16T02:33:05.075Z,0.00
2019-01-16T02:34:05.089Z,0.00
2019-01-16T02:35:05.104Z,0.00
2019-01-16T02:36:05.122Z,0.00
2019-01-16T02:37:05.135Z,0.00
2019-01-16T02:38:05.147Z,0.00
2019-01-16T02:39:05.162Z,0.00
2019-01-16T02:40:05.174Z,0.00
2019-01-16T02:41:05.193Z,0.00
2019-01-16T02:42:05.211Z,0.00
2019-01-16T02:43:05.224Z,0.00
2019-01-16T02:44:05.235Z,0.00
2019-01-16T02:45:05.255Z,0.00
2019-01-16T02:46:05.268Z,0.00
2019-01-16T02:47:05.280Z,0.00
2019-01-16T02:48:05.296Z,0.00
2019-01-16T02:49:05.310Z,0.00
2019-01-16T02:50:05.329Z,0.00
2019-01-16T02:51:05.341Z,0.00
2019-01-16T02:52:05.354Z,0.00
2019-01-16T02:53:05.372Z,0.00
2019-01-16T02:54:05.387Z,0.00
2019-01-16T02:55:05.400Z,0.00
2019-01-16T02:56:05.414Z,0.00
2019-01-16T02:57:05.430Z,0.00
2019-01-16T02:58:05.444Z,0.00
2019-01-16T02:59:05.459Z,0.00
2019-01-16T03:00:05.474Z,0.00
2019-01-16T03:01:05.487Z,0.00
2019-01-16T03:02:05.503Z,0.00
2019-01-16T03:03:05.526Z,0.00
2019-01-16T03:04:05.612Z,0.00
2019-01-16T03:05:05.548Z,0.00
2019-01-16T03:06:05.562Z,0.00
2019-01-16T03:07:05.577Z,0.00
2019-01-16T03:08:05.600Z,0.00
2019-01-16T03:09:05.629Z,0.00
2019-01-16T03:10:05.695Z,0.00
2019-01-16T03:11:05.695Z,0.00
2019-01-16T03:12:05.693Z,0.00
2019-01-16T03:13:05.692Z,0.00
2019-01-16T03:14:05.747Z,0.00
2019-01-16T03:15:05.748Z,0.00
2019-01-16T03:16:05.762Z,0.00
2019-01-16T03:17:05.766Z,0.00
2019-01-16T03:18:05.744Z,0.00
2019-01-16T03:19:05.750Z,0.00
2019-01-16T03:20:05.765Z,0.00
2019-01-16T03:21:05.782Z,0.00
2019-01-16T03:22:05.796Z,0.00
2019-01-16T03:23:05.810Z,0.00
2019-01-16T03:24:05.828Z,0.00
2019-01-16T03:25:05.840Z,0.00
2019-01-16T03:26:05.866Z,0.00
2019-01-16T03:27:05.871Z,0.00
2019-01-16T03:28:05.885Z,0.00
2019-01-16T03:29:05.897Z,0.00
2019-01-16T03:30:05.911Z,0.00
2019-01-16T03:31:05.929Z,0.00
2019-01-16T03:32:05.942Z,0.00
2019-01-16T03:33:05.968Z,0.00
2019-01-16T03:34:05.971Z,0.00
2019-01-16T03:35:05.984Z,0.00
2019-01-16T03:36:06.057Z,0.00
2019-01-16T03:37:06.015Z,0.00
2019-01-16T03:38:06.037Z,0.00
2019-01-16T03:39:06.043Z,0.00
2019-01-16T03:40:06.058Z,0.00
2019-01-16T03:41:06.072Z,0.00
2019-01-16T03:42:06.089Z,0.00
2019-01-16T03:43:06.099Z,0.00
2019-01-16T03:44:06.115Z,0.00
2019-01-16T03:45:06.131Z,0.00
2019-01-16T03:46:06.144Z,0.00
2019-01-16T03:47:06.158Z,0.00
2019-01-16T03:48:06.170Z,0.00
2019-01-16T03:49:13.272Z,0.00
2019-01-16T03:50:06.200Z,0.00
2019-01-16T03:51:06.214Z,0.00
2019-01-16T03:52:06.231Z,0.00
2019-01-16T03:53:06.243Z,0.00
2019-01-16T03:54:06.259Z,0.00
2019-01-16T03:55:06.274Z,0.00
2019-01-16T03:56:06.286Z,0.00
2019-01-16T03:57:06.303Z,0.00
2019-01-16T03:58:06.316Z,0.00
2019-01-16T03:59:06.331Z,0.00
2019-01-16T04:00:06.344Z,0.00
2019-01-16T04:01:06.369Z,0.00
2019-01-16T04:02:06.375Z,0.00
2019-01-16T04:03:06.386Z,0.00
2019-01-16T04:04:06.402Z,0.00
2019-01-16T04:05:06.422Z,0.00
2019-01-16T04:06:06.430Z,0.00
2019-01-16T04:07:06.444Z,0.00
2019-01-16T04:08:06.459Z,0.00
2019-01-16T04:09:06.474Z,0.00
2019-01-16T04:10:06.489Z,0.00
2019-01-16T04:11:06.503Z,0.00
2019-01-16T04:12:06.519Z,0.00
2019-01-16T04:13:06.532Z,0.00
2019-01-16T04:14:06.545Z,0.00
2019-01-16T04:15:06.561Z,0.00
2019-01-16T04:16:06.574Z,0.00
2019-01-16T04:17:06.590Z,0.00
2019-01-16T04:18:06.605Z,0.00
2019-01-16T04:19:06.624Z,0.00
2019-01-16T04:20:06.632Z,0.00
2019-01-16T04:21:06.645Z,0.00
2019-01-16T04:22:06.661Z,0.00
2019-01-16T04:23:06.678Z,0.00
2019-01-16T04:24:06.691Z,0.00
2019-01-16T04:25:06.719Z,0.00
2019-01-16T04:26:06.721Z,0.00
2019-01-16T04:27:06.731Z,0.00
2019-01-16T04:28:06.747Z,0.00
2019-01-16T04:29:06.762Z,0.00
2019-01-16T04:30:06.775Z,0.00
2019-01-16T04:31:06.793Z,0.00
2019-01-16T04:32:06.803Z,0.00
2019-01-16T04:33:06.819Z,0.00
2019-01-16T04:34:06.834Z,0.00
2019-01-16T04:35:06.846Z,0.00
2019-01-16T04:36:06.866Z,0.00
2019-01-16T04:37:06.876Z,0.00
2019-01-16T04:38:06.892Z,0.00
2019-01-16T04:39:06.906Z,0.00
2019-01-16T04:40:06.922Z,0.00
2019-01-16T04:41:06.938Z,0.00
2019-01-16T04:42:06.952Z,0.00
2019-01-16T04:43:06.967Z,0.00
2019-01-16T04:44:06.978Z,0.00
2019-01-16T04:45:06.993Z,0.00
2019-01-16T04:46:07.009Z,0.00
2019-01-16T04:47:07.023Z,0.00
2019-01-16T04:48:07.035Z,0.00
2019-01-16T04:49:07.051Z,0.00
2019-01-16T04:50:07.068Z,0.00
2019-01-16T04:51:07.080Z,0.00
2019-01-16T04:52:07.092Z,0.00
2019-01-16T04:53:07.111Z,0.00
2019-01-16T04:54:07.189Z,0.00
2019-01-16T04:55:07.137Z,0.00
2019-01-16T04:56:07.151Z,0.00
2019-01-16T04:57:07.166Z,0.00
2019-01-16T04:58:07.185Z,0.00
2019-01-16T04:59:07.203Z,0.00
2019-01-16T05:00:07.214Z,0.00
2019-01-16T05:01:07.225Z,0.00
2019-01-16T05:02:07.239Z,0.00
2019-01-16T05:03:07.271Z,0.00
2019-01-16T05:04:07.268Z,0.00
2019-01-16T05:05:07.283Z,0.00
2019-01-16T05:06:07.296Z,0.00
2019-01-16T05:07:07.314Z,0.00
2019-01-16T05:08:07.330Z,0.00
2019-01-16T05:09:07.340Z,0.00
2019-01-16T05:10:07.368Z,0.00
2019-01-16T05:11:07.374Z,0.00
2019-01-16T05:12:07.405Z,0.00
2019-01-16T05:13:07.397Z,0.00
2019-01-16T05:14:07.415Z,0.00
2019-01-16T05:15:07.433Z,0.00
2019-01-16T05:16:07.453Z,0.00
2019-01-16T05:17:07.530Z,0.00
2019-01-16T05:18:07.535Z,0.00
2019-01-16T05:19:07.533Z,0.00
2019-01-16T05:20:07.530Z,0.00
2019-01-16T05:21:07.577Z,0.00
2019-01-16T05:22:07.587Z,0.00
2019-01-16T05:23:07.600Z,0.00
2019-01-16T05:24:07.597Z,0.00
2019-01-16T05:25:07.588Z,0.00
2019-01-16T05:26:07.588Z,0.00
2019-01-16T05:27:07.602Z,0.00
2019-01-16T05:28:07.616Z,0.00
2019-01-16T05:29:07.630Z,0.00
2019-01-16T05:30:07.646Z,0.00
2019-01-16T05:31:07.716Z,0.00
2019-01-16T05:32:07.678Z,0.00
2019-01-16T05:33:07.689Z,0.00
2019-01-16T05:34:07.710Z,0.00
2019-01-16T05:35:07.719Z,0.00
2019-01-16T05:36:07.736Z,0.00
2019-01-16T05:37:07.745Z,0.00
2019-01-16T05:38:07.760Z,0.00
2019-01-16T05:39:07.775Z,0.00
2019-01-16T05:40:07.788Z,0.00
2019-01-16T05:41:07.807Z,0.00
2019-01-16T05:42:07.822Z,0.00
2019-01-16T05:43:07.835Z,0.00
2019-01-16T05:44:07.848Z,0.00
2019-01-16T05:45:07.863Z,0.00
2019-01-16T05:46:07.877Z,0.00
2019-01-16T05:47:07.893Z,0.00
2019-01-16T05:48:07.905Z,0.00
2019-01-16T05:49:07.918Z,0.00
2019-01-16T05:50:07.959Z,0.00
2019-01-16T05:51:07.950Z,0.00
2019-01-16T05:52:07.963Z,0.00
2019-01-16T05:53:07.981Z,0.00
2019-01-16T05:54:07.993Z,0.00
2019-01-16T05:55:08.018Z,0.00
2019-01-16T05:56:08.021Z,0.00
2019-01-16T05:57:08.035Z,0.00
2019-01-16T05:58:08.050Z,0.00
2019-01-16T05:59:08.067Z,0.00
2019-01-16T06:00:08.084Z,0.00
2019-01-16T06:01:08.095Z,0.00
2019-01-16T06:02:08.116Z,0.00
2019-01-16T06:03:08.123Z,0.00
2019-01-16T06:04:08.137Z,0.00
2019-01-16T06:05:08.152Z,0.00
2019-01-16T06:06:08.166Z,0.00
2019-01-16T06:07:08.196Z,0.00
2019-01-16T06:08:08.195Z,0.00
2019-01-16T06:09:08.210Z,0.00
2019-01-16T06:10:08.228Z,0.00
2019-01-16T06:11:08.245Z,0.00
2019-01-16T06:12:08.253Z,0.00
2019-01-16T06:13:08.268Z,0.00
2019-01-16T06:14:08.281Z,0.00
2019-01-16T06:15:08.296Z,0.00
2019-01-16T06:16:08.309Z,0.00
2019-01-16T06:17:08.325Z,0.00
2019-01-16T06:18:08.339Z,0.00
2019-01-16T06:19:08.355Z,0.00
2019-01-16T06:20:08.369Z,0.00
2019-01-16T06:21:08.384Z,0.00
2019-01-16T06:22:08.398Z,0.00
2019-01-16T06:23:08.415Z,0.00
2019-01-16T06:24:08.428Z,0.00
2019-01-16T06:25:08.443Z,0.00
2019-01-16T06:26:08.463Z,0.00
2019-01-16T06:27:08.471Z,0.00
2019-01-16T06:28:08.487Z,0.00
2019-01-16T06:29:08.501Z,0.00
2019-01-16T06:30:08.516Z,0.00
2019-01-16T06:31:08.529Z,0.00
2019-01-16T06:32:08.543Z,0.00
2019-01-16T06:33:08.560Z,0.00
2019-01-16T06:34:08.573Z,0.00
2019-01-16T06:35:08.590Z,0.00
2019-01-16T06:36:08.603Z,0.00
2019-01-16T06:37:08.617Z,0.00
2019-01-16T06:38:08.631Z,0.00
2019-01-16T06:39:08.647Z,0.00
2019-01-16T06:40:08.664Z,0.00
2019-01-16T06:41:08.673Z,0.00
2019-01-16T06:42:08.690Z,0.00
2019-01-16T06:43:08.705Z,0.00
2019-01-16T06:44:08.718Z,0.00
2019-01-16T06:45:08.733Z,0.00
2019-01-16T06:46:08.747Z,0.00
2019-01-16T06:47:08.764Z,0.00
2019-01-16T06:48:08.777Z,0.00
2019-01-16T06:49:08.790Z,0.00
2019-01-16T06:50:16.279Z,0.00
2019-01-16T06:51:08.820Z,0.00
2019-01-16T06:52:08.834Z,0.00
2019-01-16T06:53:08.851Z,0.00
2019-01-16T06:54:08.864Z,0.00
2019-01-16T06:55:08.881Z,0.00
2019-01-16T06:56:08.951Z,0.00
2019-01-16T06:57:08.906Z,0.00
2019-01-16T06:58:08.922Z,0.00
2019-01-16T06:59:08.938Z,0.00
2019-01-16T07:00:08.950Z,0.00
2019-01-16T07:01:08.969Z,0.00
2019-01-16T07:02:08.984Z,0.00
2019-01-16T07:03:08.995Z,0.00
2019-01-16T07:04:09.019Z,0.00
2019-01-16T07:05:09.025Z,0.00
2019-01-16T07:06:09.037Z,5.63
2019-01-16T07:07:09.051Z,5.63
2019-01-16T07:08:09.067Z,5.63
2019-01-16T07:09:09.082Z,5.63
2019-01-16T07:10:09.095Z,5.63
2019-01-16T07:11:09.109Z,5.63
2019-01-16T07:12:09.124Z,5.63
2019-01-16T07:13:09.149Z,5.63
2019-01-16T07:14:09.154Z,5.63
2019-01-16T07:15:09.167Z,5.63
2019-01-16T07:16:09.186Z,5.63
2019-01-16T07:17:09.194Z,5.63
2019-01-16T07:18:09.209Z,5.63
2019-01-16T07:19:09.224Z,5.63
2019-01-16T07:20:09.790Z,11.25
2019-01-16T07:21:09.252Z,11.25
2019-01-16T07:22:09.268Z,11.25
2019-01-16T07:23:09.295Z,11.25
2019-01-16T07:24:09.373Z,11.25
2019-01-16T07:25:09.367Z,11.25
2019-01-16T07:26:09.382Z,11.25
2019-01-16T07:27:09.380Z,11.25
2019-01-16T07:28:09.433Z,11.25
2019-01-16T07:29:09.432Z,11.25
2019-01-16T07:30:09.436Z,11.25
2019-01-16T07:31:09.427Z,16.88
2019-01-16T07:32:09.444Z,11.25
2019-01-16T07:33:09.432Z,16.88
2019-01-16T07:34:09.440Z,16.88
2019-01-16T07:35:09.451Z,22.50
2019-01-16T07:36:09.466Z,22.50
2019-01-16T07:37:09.482Z,22.50
2019-01-16T07:38:09.495Z,22.50
2019-01-16T07:39:09.512Z,22.50
2019-01-16T07:40:09.523Z,22.50
2019-01-16T07:41:09.540Z,16.88
2019-01-16T07:42:09.558Z,16.88
2019-01-16T07:43:09.569Z,16.88
2019-01-16T07:44:09.582Z,16.88
2019-01-16T07:45:09.599Z,16.88
2019-01-16T07:46:09.612Z,16.88
2019-01-16T07:47:09.628Z,22.50
2019-01-16T07:48:09.640Z,22.50
2019-01-16T07:49:09.655Z,22.50
2019-01-16T07:50:16.944Z,22.50
2019-01-16T07:51:09.684Z,28.13
2019-01-16T07:52:09.697Z,22.50
2019-01-16T07:53:09.713Z,22.50
2019-01-16T07:54:09.728Z,16.88
2019-01-16T07:55:09.742Z,16.88
2019-01-16T07:56:09.756Z,22.50
2019-01-16T07:57:09.771Z,22.50
2019-01-16T07:58:09.788Z,22.50
2019-01-16T07:59:09.804Z,28.13
2019-01-16T08:00:09.813Z,45.00
2019-01-16T08:01:09.827Z,50.63
2019-01-16T08:02:09.842Z,39.38
2019-01-16T08:03:09.857Z,39.38
2019-01-16T08:04:09.872Z,39.38
2019-01-16T08:05:09.889Z,33.75
2019-01-16T08:06:09.901Z,33.75
2019-01-16T08:07:09.915Z,33.75
2019-01-16T08:08:09.930Z,39.38
2019-01-16T08:09:09.943Z,39.38
2019-01-16T08:10:09.958Z,39.38
2019-01-16T08:11:09.973Z,39.38
2019-01-16T08:12:09.993Z,39.38
2019-01-16T08:13:10.001Z,39.38
2019-01-16T08:14:10.024Z,45.00
2019-01-16T08:15:10.034Z,50.63
2019-01-16T08:16:10.045Z,45.00
2019-01-16T08:17:10.061Z,39.38
2019-01-16T08:18:10.073Z,45.00
2019-01-16T08:19:10.090Z,61.88
2019-01-16T08:20:10.104Z,56.25
2019-01-16T08:21:10.119Z,56.25
2019-01-16T08:22:10.134Z,61.88
2019-01-16T08:23:10.150Z,56.25
2019-01-16T08:24:10.162Z,61.88
2019-01-16T08:25:10.178Z,78.75
2019-01-16T08:26:10.192Z,84.38
2019-01-16T08:27:10.211Z,78.75
2019-01-16T08:28:10.221Z,67.50
2019-01-16T08:29:10.237Z,67.50
2019-01-16T08:30:10.252Z,56.25
2019-01-16T08:31:10.267Z,45.00
2019-01-16T08:32:10.279Z,61.88
2019-01-16T08:33:10.294Z,73.13
2019-01-16T08:34:10.310Z,67.50
2019-01-16T08:35:10.326Z,67.50
2019-01-16T08:36:10.341Z,73.13
2019-01-16T08:37:10.356Z,61.88
2019-01-16T08:38:10.370Z,56.25
2019-01-16T08:39:10.387Z,61.88
2019-01-16T08:40:10.400Z,73.13
2019-01-16T08:41:10.411Z,78.75
2019-01-16T08:42:10.430Z,73.13
2019-01-16T08:43:10.446Z,73.13
2019-01-16T08:44:13.880Z,78.75
2019-01-16T08:45:10.474Z,73.13
2019-01-16T08:46:10.490Z,61.88
2019-01-16T08:47:10.504Z,56.25
2019-01-16T08:48:10.518Z,50.63
2019-01-16T08:49:10.537Z,45.00
2019-01-16T08:50:10.547Z,39.38
2019-01-16T08:51:10.563Z,45.00
2019-01-16T08:52:10.576Z,56.25
2019-01-16T08:53:10.591Z,61.88
2019-01-16T08:54:10.607Z,73.13
2019-01-16T08:55:10.623Z,73.13
2019-01-16T08:56:10.641Z,61.88
2019-01-16T08:57:10.651Z,56.25
2019-01-16T08:58:10.668Z,50.63
2019-01-16T08:59:10.682Z,56.25
2019-01-16T09:00:10.695Z,67.50
2019-01-16T09:01:10.711Z,50.63
2019-01-16T09:02:10.726Z,50.63
2019-01-16T09:03:10.743Z,50.63
2019-01-16T09:04:10.756Z,56.25
2019-01-16T09:05:10.776Z,73.13
2019-01-16T09:06:10.788Z,61.88
2019-01-16T09:07:10.802Z,45.00
2019-01-16T09:08:10.815Z,39.38
2019-01-16T09:09:10.831Z,33.75
2019-01-16T09:10:10.850Z,45.00
2019-01-16T09:11:10.861Z,50.63
2019-01-16T09:12:10.876Z,56.25
2019-01-16T09:13:10.891Z,56.25
2019-01-16T09:14:10.907Z,61.88
2019-01-16T09:15:10.921Z,50.63
2019-01-16T09:16:10.935Z,50.63
2019-01-16T09:17:10.952Z,45.00
2019-01-16T09:18:10.966Z,50.63
2019-01-16T09:19:10.980Z,56.25
2019-01-16T09:20:10.995Z,61.88
2019-01-16T09:21:11.012Z,61.88
2019-01-16T09:22:11.026Z,61.88
2019-01-16T09:23:11.039Z,61.88
2019-01-16T09:24:11.064Z,61.88
2019-01-16T09:25:11.070Z,67.50
2019-01-16T09:26:11.087Z,73.13
2019-01-16T09:27:11.101Z,78.75
2019-01-16T09:28:11.115Z,73.13
2019-01-16T09:29:11.167Z,67.50
2019-01-16T09:30:11.213Z,67.50
2019-01-16T09:31:11.218Z,61.88
2019-01-16T09:32:11.214Z,56.25
2019-01-16T09:33:11.216Z,56.25
2019-01-16T09:34:11.254Z,61.88
2019-01-16T09:35:11.264Z,78.75
2019-01-16T09:36:11.269Z,95.63
2019-01-16T09:37:11.274Z,73.13
2019-01-16T09:38:11.271Z,73.13
2019-01-16T09:39:11.284Z,67.50
2019-01-16T09:40:11.295Z,73.13
2019-01-16T09:41:11.310Z,67.50
2019-01-16T09:42:11.328Z,61.88
2019-01-16T09:43:11.340Z,61.88
2019-01-16T09:44:11.354Z,67.50
2019-01-16T09:45:11.370Z,67.50
2019-01-16T09:46:11.385Z,73.13
2019-01-16T09:47:11.402Z,101.25
2019-01-16T09:48:11.417Z,118.13
2019-01-16T09:49:11.431Z,95.63
2019-01-16T09:50:11.450Z,73.13
2019-01-16T09:51:11.464Z,67.50
2019-01-16T09:52:11.475Z,67.50
2019-01-16T09:53:11.492Z,78.75
2019-01-16T09:54:11.507Z,61.88
2019-01-16T09:55:11.521Z,61.88
2019-01-16T09:56:11.537Z,67.50
2019-01-16T09:57:11.551Z,78.75
2019-01-16T09:58:11.570Z,84.38
2019-01-16T09:59:11.580Z,67.50
2019-01-16T10:00:11.595Z,67.50
2019-01-16T10:01:11.612Z,78.75
2019-01-16T10:02:11.626Z,84.38
2019-01-16T10:03:11.640Z,101.25
2019-01-16T10:04:11.660Z,106.88
2019-01-16T10:05:11.672Z,123.75
2019-01-16T10:06:11.687Z,106.88
2019-01-16T10:07:11.702Z,90.00
2019-01-16T10:08:11.720Z,78.75
2019-01-16T10:09:11.733Z,78.75
2019-01-16T10:10:11.748Z,84.38
2019-01-16T10:11:11.759Z,95.63
2019-01-16T10:12:11.782Z,101.25
2019-01-16T10:13:11.794Z,106.88
2019-01-16T10:14:11.805Z,101.25
2019-01-16T10:15:11.822Z,106.88
2019-01-16T10:16:11.835Z,90.00
2019-01-16T10:17:11.850Z,78.75
2019-01-16T10:18:11.864Z,78.75
2019-01-16T10:19:11.882Z,95.63
2019-01-16T10:20:11.896Z,90.00
2019-01-16T10:21:11.991Z,106.88
2019-01-16T10:22:11.926Z,129.38
2019-01-16T10:23:11.946Z,112.50
2019-01-16T10:24:11.956Z,90.00
2019-01-16T10:25:11.968Z,90.00
2019-01-16T10:26:11.990Z,95.63
2019-01-16T10:27:12.002Z,84.38
2019-01-16T10:28:12.016Z,90.00
2019-01-16T10:29:12.033Z,90.00
2019-01-16T10:30:12.045Z,101.25
2019-01-16T10:31:12.061Z,90.00
2019-01-16T10:32:12.080Z,84.38
2019-01-16T10:33:12.090Z,84.38
2019-01-16T10:34:12.103Z,84.38
2019-01-16T10:35:12.122Z,90.00
2019-01-16T10:36:12.137Z,95.63
2019-01-16T10:37:12.153Z,101.25
2019-01-16T10:38:12.165Z,90.00
2019-01-16T10:39:12.182Z,95.63
2019-01-16T10:40:12.200Z,101.25
2019-01-16T10:41:12.211Z,106.88
2019-01-16T10:42:12.225Z,101.25
2019-01-16T10:43:12.249Z,106.88
2019-01-16T10:44:12.259Z,112.50
2019-01-16T10:45:12.272Z,118.13
2019-01-16T10:46:12.291Z,123.75
2019-01-16T10:47:12.316Z,123.75
2019-01-16T10:48:12.316Z,123.75
2019-01-16T10:49:12.330Z,129.38
2019-01-16T10:50:12.348Z,129.38
2019-01-16T10:51:12.361Z,135.00
2019-01-16T10:52:12.378Z,140.63
2019-01-16T10:53:12.392Z,146.25
2019-01-16T10:54:12.410Z,146.25
2019-01-16T10:55:12.424Z,146.25
2019-01-16T10:56:12.437Z,140.63
2019-01-16T10:57:12.454Z,146.25
2019-01-16T10:58:12.471Z,151.88
2019-01-16T10:59:12.483Z,151.88
2019-01-16T11:00:12.498Z,157.50
2019-01-16T11:01:12.514Z,157.50
2019-01-16T11:02:12.529Z,157.50
2019-01-16T11:03:12.546Z,146.25
2019-01-16T11:04:12.559Z,140.63
2019-01-16T11:05:13.359Z,135.00
2019-01-16T11:06:12.590Z,140.63
2019-01-16T11:07:12.605Z,157.50
2019-01-16T11:08:12.619Z,163.13
2019-01-16T11:09:12.636Z,163.13
2019-01-16T11:10:12.653Z,180.00
2019-01-16T11:11:16.218Z,185.63
2019-01-16T11:12:12.680Z,180.00
2019-01-16T11:13:12.697Z,180.00
2019-01-16T11:14:12.714Z,185.63
2019-01-16T11:15:12.729Z,180.00
2019-01-16T11:16:12.743Z,174.38
2019-01-16T11:17:12.760Z,180.00
2019-01-16T11:18:12.773Z,196.88
2019-01-16T11:19:12.791Z,208.13
2019-01-16T11:20:12.804Z,213.75
2019-01-16T11:21:12.822Z,219.38
2019-01-16T11:22:12.837Z,213.75
2019-01-16T11:23:12.853Z,202.50
2019-01-16T11:24:12.867Z,191.25
2019-01-16T11:25:12.883Z,174.38
2019-01-16T11:26:12.905Z,163.13
2019-01-16T11:27:12.918Z,157.50
2019-01-16T11:28:12.929Z,168.75
2019-01-16T11:29:12.944Z,157.50
2019-01-16T11:30:12.960Z,151.88
2019-01-16T11:31:12.991Z,157.50
2019-01-16T11:32:13.062Z,163.13
2019-01-16T11:33:13.066Z,180.00
2019-01-16T11:34:13.061Z,196.88
2019-01-16T11:35:13.120Z,208.13
2019-01-16T11:36:13.126Z,196.88
2019-01-16T11:37:13.124Z,185.63
2019-01-16T11:38:13.122Z,168.75
2019-01-16T11:39:13.121Z,191.25
2019-01-16T11:40:13.115Z,196.88
2019-01-16T11:41:13.131Z,191.25
2019-01-16T11:42:13.148Z,219.38
2019-01-16T11:43:13.168Z,225.00
2019-01-16T11:44:13.179Z,219.38
2019-01-16T11:45:13.193Z,213.75
2019-01-16T11:46:13.210Z,191.25
2019-01-16T11:47:13.257Z,168.75
2019-01-16T11:48:13.242Z,174.38
2019-01-16T11:49:13.258Z,157.50
2019-01-16T11:50:13.272Z,185.63
2019-01-16T11:51:18.653Z,236.25
2019-01-16T11:52:13.304Z,247.50
2019-01-16T11:53:13.322Z,208.13
2019-01-16T11:54:13.337Z,174.38
2019-01-16T11:55:13.352Z,157.50
2019-01-16T11:56:13.367Z,163.13
2019-01-16T11:57:13.384Z,151.88
2019-01-16T11:58:13.398Z,123.75
2019-01-16T11:59:13.415Z,118.13
2019-01-16T12:00:13.431Z,118.13
2019-01-16T12:01:13.444Z,95.63
2019-01-16T12:02:13.462Z,84.38
2019-01-16T12:03:13.481Z,90.00
2019-01-16T12:04:13.558Z,101.25
2019-01-16T12:05:13.511Z,106.88
2019-01-16T12:06:13.527Z,112.50
2019-01-16T12:07:13.541Z,101.25
2019-01-16T12:08:13.565Z,101.25
2019-01-16T12:09:13.574Z,101.25
2019-01-16T12:10:13.591Z,118.13
2019-01-16T12:11:13.606Z,112.50
2019-01-16T12:12:13.620Z,118.13
2019-01-16T12:13:13.636Z,123.75
2019-01-16T12:14:13.654Z,146.25
2019-01-16T12:15:13.666Z,151.88
2019-01-16T12:16:13.683Z,163.13
2019-01-16T12:17:13.701Z,185.63
2019-01-16T12:18:13.714Z,174.38
2019-01-16T12:19:13.730Z,196.88
2019-01-16T12:20:13.745Z,208.13
2019-01-16T12:21:13.762Z,180.00
2019-01-16T12:22:13.778Z,163.13
2019-01-16T12:23:13.859Z,163.13
2019-01-16T12:24:13.810Z,146.25
2019-01-16T12:25:13.825Z,129.38
2019-01-16T12:26:13.851Z,129.38
2019-01-16T12:27:13.856Z,129.38
2019-01-16T12:28:13.874Z,129.38
2019-01-16T12:29:13.891Z,123.75
2019-01-16T12:30:13.910Z,123.75
2019-01-16T12:31:13.921Z,123.75
2019-01-16T12:32:13.936Z,140.63
2019-01-16T12:33:13.952Z,151.88
2019-01-16T12:34:13.968Z,146.25
2019-01-16T12:35:13.986Z,140.63
2019-01-16T12:36:14.001Z,140.63
2019-01-16T12:37:14.016Z,135.00
2019-01-16T12:38:14.037Z,135.00
2019-01-16T12:39:14.053Z,151.88
2019-01-16T12:40:14.063Z,146.25
2019-01-16T12:41:14.079Z,140.63
2019-01-16T12:42:14.101Z,146.25
2019-01-16T12:43:14.113Z,151.88
2019-01-16T12:44:14.127Z,140.63
2019-01-16T12:45:14.142Z,140.63
2019-01-16T12:46:14.162Z,135.00
2019-01-16T12:47:14.176Z,135.00
2019-01-16T12:48:14.189Z,151.88
2019-01-16T12:49:14.207Z,151.88
2019-01-16T12:50:14.227Z,146.25
2019-01-16T12:51:14.234Z,140.63
2019-01-16T12:52:14.250Z,123.75
2019-01-16T12:53:14.268Z,135.00
2019-01-16T12:54:14.289Z,135.00
2019-01-16T12:55:14.306Z,123.75
2019-01-16T12:56:14.315Z,112.50
2019-01-16T12:57:14.334Z,112.50
2019-01-16T12:58:14.353Z,123.75
2019-01-16T12:59:14.362Z,129.38
2019-01-16T13:00:14.377Z,135.00
2019-01-16T13:01:14.393Z,118.13